Time;durP1;ratioP1;P1;durP2;ratioP2;P2;SDS_P1;SDS_P2;PMS_P1;PMS_P2;Temp;Humidity;BMP_temperature;BMP_pressure;BME280_temperature;BME280_humidity;BME280_pressure;Samples;Min_cycle;Max_cycle;Signal;HPM_P1;HPM_P2
2021/12/30 05:01:50;;;;;;;1.67;1.30;;;12.80;99.90;;;;;;5270918;23;20582;-75
2021/12/30 05:04:17;;;;;;;1.77;1.40;;;12.80;99.90;;;;;;4915771;29;21038;-75
2021/12/30 05:06:44;;;;;;;4.00;1.50;;;12.80;99.90;;;;;;4915816;29;20469;-75
2021/12/30 05:09:11;;;;;;;2.73;1.70;;;12.70;99.90;;;;;;4915495;29;20894;-74
2021/12/30 05:11:41;;;;;;;2.50;1.40;;;12.70;99.90;;;;;;4915368;29;20478;-75
2021/12/30 05:14:08;;;;;;;2.13;1.93;;;12.80;99.90;;;;;;4915993;29;20469;-75
2021/12/30 05:16:35;;;;;;;2.97;1.70;;;12.80;99.90;;;;;;4915782;29;20459;-75
2021/12/30 05:19:04;;;;;;;3.60;2.10;;;12.70;99.90;;;;;;4915407;29;20553;-75
2021/12/30 05:21:32;;;;;;;3.50;1.80;;;12.80;99.90;;;;;;4915536;29;20874;-75
2021/12/30 05:23:59;;;;;;;5.23;2.10;;;12.80;99.90;;;;;;4915536;29;20461;-75
2021/12/30 05:26:27;;;;;;;2.33;1.80;;;12.80;99.90;;;;;;4915352;29;20545;-75
2021/12/30 05:28:55;;;;;;;3.50;2.63;;;12.70;99.90;;;;;;4915436;29;20467;-75
2021/12/30 05:31:22;;;;;;;4.00;3.20;;;12.70;99.90;;;;;;4911048;29;20674;-75
2021/12/30 05:33:48;;;;;;;5.77;2.77;;;12.70;99.90;;;;;;4909769;29;20463;-74
2021/12/30 05:36:17;;;;;;;7.10;3.10;;;12.70;99.90;;;;;;4915475;29;20546;-75
2021/12/30 05:38:44;;;;;;;3.47;2.60;;;12.70;99.90;;;;;;4915201;29;20553;-74
2021/12/30 05:41:11;;;;;;;5.20;2.70;;;12.80;99.90;;;;;;4915431;29;20553;-75
2021/12/30 05:43:38;;;;;;;2.40;2.20;;;12.70;99.90;;;;;;4915643;29;20538;-75
2021/12/30 05:46:05;;;;;;;2.90;2.03;;;12.70;99.90;;;;;;4915921;29;20545;-75
2021/12/30 05:48:32;;;;;;;5.23;2.80;;;12.70;99.90;;;;;;4915317;29;20545;-75
2021/12/30 05:51:00;;;;;;;6.83;3.27;;;12.70;99.90;;;;;;4915160;29;20561;-75
2021/12/30 05:53:28;;;;;;;3.50;2.33;;;12.70;99.90;;;;;;4915178;29;20463;-75
2021/12/30 05:55:55;;;;;;;4.30;1.90;;;12.70;99.90;;;;;;4915583;29;20533;-75
2021/12/30 05:58:22;;;;;;;3.57;2.30;;;12.70;99.90;;;;;;4917325;29;20616;-75
2021/12/30 06:00:50;;;;;;;3.27;1.90;;;12.70;99.90;;;;;;4918509;29;20534;-75
2021/12/30 06:03:19;;;;;;;2.87;2.40;;;12.70;99.90;;;;;;4918959;29;20549;-74
2021/12/30 06:05:46;;;;;;;2.50;2.00;;;12.80;99.90;;;;;;4918761;29;20556;-75
2021/12/30 06:08:13;;;;;;;5.13;2.63;;;12.70;99.90;;;;;;4918967;29;20549;-75
2021/12/30 06:10:43;;;;;;;2.30;1.80;;;12.80;99.90;;;;;;4918541;29;20561;-75
2021/12/30 06:13:10;;;;;;;2.57;1.80;;;12.80;99.90;;;;;;4918935;29;20466;-74
2021/12/30 06:15:37;;;;;;;2.33;2.00;;;12.80;99.90;;;;;;4918703;29;20537;-75
2021/12/30 06:18:04;;;;;;;3.00;2.03;;;12.80;99.90;;;;;;4918700;29;20462;-75
2021/12/30 06:20:31;;;;;;;2.80;2.20;;;12.80;99.90;;;;;;4918056;29;20517;-75
2021/12/30 06:22:59;;;;;;;2.20;2.00;;;12.90;99.90;;;;;;4918727;29;20458;-76
2021/12/30 06:25:26;;;;;;;2.27;1.73;;;12.80;99.90;;;;;;4918629;29;20513;-75
2021/12/30 06:27:54;;;;;;;3.33;2.60;;;12.80;99.90;;;;;;4918529;29;20557;-75
2021/12/30 06:30:21;;;;;;;2.77;1.90;;;12.80;99.90;;;;;;4918024;29;20482;-75
2021/12/30 06:32:48;;;;;;;2.47;2.03;;;12.70;99.90;;;;;;4918230;29;20534;-75
2021/12/30 06:35:15;;;;;;;5.67;1.70;;;12.70;99.90;;;;;;4918284;29;20545;-75
2021/12/30 06:37:42;;;;;;;2.63;1.83;;;12.70;99.90;;;;;;4918465;29;20553;-75
2021/12/30 06:40:11;;;;;;;3.53;2.20;;;12.70;99.90;;;;;;4918096;29;20581;-75
2021/12/30 06:42:41;;;;;;;2.90;2.60;;;12.70;99.90;;;;;;4918149;29;20501;-75
2021/12/30 06:45:10;;;;;;;4.63;2.20;;;12.70;99.90;;;;;;4918127;29;20490;-75
2021/12/30 06:47:37;;;;;;;2.63;2.23;;;12.70;99.90;;;;;;4917836;29;20985;-75
2021/12/30 06:50:04;;;;;;;2.47;2.27;;;12.70;99.90;;;;;;4917818;29;20459;-75
2021/12/30 06:52:31;;;;;;;5.90;2.43;;;12.70;99.90;;;;;;4918035;29;20530;-75
2021/12/30 06:54:58;;;;;;;3.43;2.00;;;12.70;99.90;;;;;;4918120;29;20485;-75
2021/12/30 06:57:25;;;;;;;7.67;2.00;;;12.60;99.90;;;;;;4917945;29;20462;-75
2021/12/30 06:59:52;;;;;;;2.30;2.10;;;12.60;99.90;;;;;;4917521;29;20504;-75
2021/12/30 07:02:20;;;;;;;3.43;2.30;;;12.60;99.90;;;;;;4917669;29;20946;-75
2021/12/30 07:04:47;;;;;;;1.97;1.77;;;12.60;99.90;;;;;;4917789;29;20461;-75
2021/12/30 07:07:14;;;;;;;2.03;1.83;;;12.60;99.90;;;;;;4917530;29;20518;-75
2021/12/30 07:09:41;;;;;;;1.90;1.70;;;12.60;99.90;;;;;;4916178;29;20923;-75
2021/12/30 07:12:09;;;;;;;4.00;1.90;;;12.50;99.90;;;;;;4917613;29;20557;-75
2021/12/30 07:14:36;;;;;;;4.60;1.60;;;12.50;99.90;;;;;;4917446;29;20542;-75
2021/12/30 07:17:03;;;;;;;3.97;1.87;;;12.60;99.90;;;;;;4917669;29;20465;-75
2021/12/30 07:19:31;;;;;;;5.57;1.93;;;12.60;99.90;;;;;;4917349;29;20542;-75
2021/12/30 07:21:58;;;;;;;1.57;1.47;;;12.60;99.90;;;;;;4917506;29;20549;-75
2021/12/30 07:24:25;;;;;;;2.67;2.10;;;12.60;99.90;;;;;;4917829;29;20533;-75
2021/12/30 07:26:53;;;;;;;2.83;1.60;;;12.70;99.90;;;;;;4917355;29;20896;-75
2021/12/30 07:29:20;;;;;;;1.90;1.80;;;12.70;99.90;;;;;;4916805;29;20585;-75
2021/12/30 07:31:47;;;;;;;3.47;2.00;;;12.70;99.90;;;;;;4917351;29;20562;-75
2021/12/30 07:34:14;;;;;;;3.20;1.53;;;12.70;99.90;;;;;;4917239;29;20484;-75
2021/12/30 07:36:42;;;;;;;2.13;1.93;;;12.80;99.90;;;;;;4917308;29;20450;-75
2021/12/30 07:39:09;;;;;;;1.50;1.40;;;12.80;99.90;;;;;;4917009;29;20554;-75
2021/12/30 07:41:36;;;;;;;2.60;1.60;;;12.80;99.90;;;;;;4916659;29;20958;-75
2021/12/30 07:44:03;;;;;;;1.73;1.47;;;12.70;99.90;;;;;;4917246;29;20465;-75
2021/12/30 07:46:31;;;;;;;1.60;1.50;;;12.70;99.90;;;;;;4917149;29;20461;-75
2021/12/30 07:48:58;;;;;;;1.70;1.37;;;12.70;99.90;;;;;;4916813;29;20470;-75
2021/12/30 07:51:25;;;;;;;1.80;1.60;;;12.70;99.90;;;;;;4916740;29;21034;-75
2021/12/30 07:53:53;;;;;;;2.60;2.03;;;12.80;99.90;;;;;;4916852;29;20493;-75
2021/12/30 07:56:20;;;;;;;2.93;2.27;;;12.70;99.90;;;;;;4916466;29;20461;-75
2021/12/30 07:58:46;;;;;;;2.33;1.80;;;12.70;99.90;;;;;;4917054;29;20545;-75
2021/12/30 08:01:14;;;;;;;2.90;1.63;;;12.70;99.90;;;;;;4915524;29;20504;-75
2021/12/30 08:03:41;;;;;;;4.03;1.60;;;12.70;99.90;;;;;;4915818;29;20974;-75
2021/12/30 08:06:08;;;;;;;2.40;1.30;;;12.70;99.90;;;;;;4915691;29;20463;-75
2021/12/30 08:08:35;;;;;;;2.20;2.00;;;12.70;99.90;;;;;;4915769;29;20545;-75
2021/12/30 08:11:03;;;;;;;2.13;1.63;;;12.70;99.90;;;;;;4915333;29;20558;-75
2021/12/30 08:13:30;;;;;;;2.07;1.90;;;12.70;99.90;;;;;;4915633;29;20542;-75
2021/12/30 08:15:57;;;;;;;1.70;1.60;;;12.70;99.90;;;;;;4916158;29;20465;-75
2021/12/30 08:18:24;;;;;;;2.63;2.00;;;12.70;99.90;;;;;;4915986;29;20549;-74
2021/12/30 08:20:52;;;;;;;2.60;2.10;;;12.80;99.90;;;;;;4915197;29;20590;-75
2021/12/30 08:23:19;;;;;;;2.53;2.00;;;12.80;99.90;;;;;;4915753;29;20462;-75
2021/12/30 08:25:49;;;;;;;2.33;1.90;;;12.80;99.90;;;;;;4916021;29;20545;-75
2021/12/30 08:28:18;;;;;;;2.10;2.00;;;12.90;99.90;;;;;;4915450;29;20542;-73
2021/12/30 08:30:45;;;;;;;2.27;2.07;;;12.90;99.90;;;;;;4915761;29;20474;-74
2021/12/30 08:33:12;;;;;;;2.65;2.45;;;12.90;99.90;;;;;;4915160;29;20479;-75
2021/12/30 08:35:39;;;;;;;2.60;2.40;;;13.00;99.90;;;;;;4915304;29;20229;-74
2021/12/30 08:38:06;;;;;;;3.60;2.37;;;13.00;99.90;;;;;;4915143;29;20541;-73
2021/12/30 08:40:33;;;;;;;2.23;2.03;;;13.00;99.90;;;;;;4914919;29;20520;-74
2021/12/30 08:43:00;;;;;;;2.00;1.80;;;13.00;99.90;;;;;;4915223;29;21011;-74
2021/12/30 08:45:28;;;;;;;2.27;2.07;;;13.00;99.90;;;;;;4915221;29;20533;-74
2021/12/30 08:47:55;;;;;;;2.33;2.00;;;13.00;99.90;;;;;;4915334;29;20545;-73
2021/12/30 08:50:22;;;;;;;2.40;2.17;;;13.00;99.90;;;;;;4914630;29;20537;-74
2021/12/30 08:52:49;;;;;;;2.40;2.20;;;13.00;99.90;;;;;;4915093;29;20450;-74
2021/12/30 08:55:17;;;;;;;3.70;2.60;;;13.00;99.90;;;;;;4915706;29;20533;-74
2021/12/30 08:57:45;;;;;;;2.57;2.37;;;13.00;99.90;;;;;;4915347;29;20908;-75
2021/12/30 09:00:15;;;;;;;4.07;2.70;;;13.00;99.90;;;;;;4914597;29;20457;-74
2021/12/30 09:02:44;;;;;;;3.40;3.10;;;13.00;99.90;;;;;;4915563;29;20518;-73
2021/12/30 09:05:12;;;;;;;2.70;2.50;;;13.10;99.90;;;;;;4915596;29;20503;-77
2021/12/30 09:07:39;;;;;;;3.93;2.80;;;13.10;99.90;;;;;;4915265;29;20541;-72
2021/12/30 09:10:08;;;;;;;2.87;2.67;;;13.00;99.90;;;;;;4914795;29;20461;-74
2021/12/30 09:12:35;;;;;;;2.77;2.57;;;13.10;99.90;;;;;;4914901;29;20545;-74
2021/12/30 09:15:03;;;;;;;3.67;3.33;;;13.10;99.90;;;;;;4915718;29;20545;-75
2021/12/30 09:17:29;;;;;;;3.10;2.90;;;13.10;99.90;;;;;;4914998;29;20482;-75
2021/12/30 09:19:58;;;;;;;2.40;2.20;;;13.10;99.90;;;;;;4914720;29;20501;-75
2021/12/30 09:22:25;;;;;;;3.63;2.43;;;13.20;99.90;;;;;;4915858;29;20502;-75
2021/12/30 09:24:52;;;;;;;2.87;2.57;;;13.20;99.90;;;;;;4915611;29;20545;-75
2021/12/30 09:27:19;;;;;;;4.10;2.70;;;13.20;99.90;;;;;;4916160;29;20799;-77
2021/12/30 09:29:46;;;;;;;6.23;3.37;;;13.20;99.90;;;;;;4917861;29;20549;-77
2021/12/30 09:32:12;;;;;;;3.50;3.20;;;13.20;99.90;;;;;;4920051;29;20557;-74
2021/12/30 09:34:39;;;;;;;3.70;3.30;;;13.20;99.90;;;;;;4920907;29;20543;-76
2021/12/30 09:37:10;;;;;;;4.97;3.40;;;13.20;99.90;;;;;;4920075;29;20446;-73
2021/12/30 09:39:37;;;;;;;5.50;3.40;;;13.20;99.90;;;;;;4919127;29;20470;-73
2021/12/30 09:42:05;;;;;;;7.57;3.23;;;13.20;99.90;;;;;;4919189;29;20502;-74
2021/12/30 09:44:32;;;;;;;3.83;2.80;;;13.20;99.90;;;;;;4919090;29;20454;-75
2021/12/30 09:46:59;;;;;;;3.87;3.23;;;13.20;99.90;;;;;;4919496;29;20458;-75
2021/12/30 09:49:28;;;;;;;2.97;2.50;;;13.10;99.90;;;;;;4919057;29;20450;-66
2021/12/30 09:51:55;;;;;;;3.90;2.63;;;13.20;99.90;;;;;;4918826;29;20471;-66
2021/12/30 09:54:24;;;;;;;2.93;2.10;;;13.20;99.90;;;;;;4915805;29;20542;-66
2021/12/30 09:56:52;;;;;;;2.30;2.10;;;13.20;99.90;;;;;;4908601;29;20462;-66
2021/12/30 09:59:20;;;;;;;3.07;2.20;;;13.30;99.90;;;;;;4910115;29;20534;-66
2021/12/30 10:01:46;;;;;;;2.70;1.90;;;13.30;99.90;;;;;;4910240;29;20578;-66
2021/12/30 10:04:14;;;;;;;2.57;2.37;;;13.30;99.90;;;;;;4904373;29;20459;-76
2021/12/30 10:06:45;;;;;;;2.30;2.10;;;13.30;99.90;;;;;;4900066;29;20487;-76
2021/12/30 10:09:14;;;;;;;3.03;2.03;;;13.30;99.90;;;;;;4899712;29;20542;-75
2021/12/30 10:11:47;;;;;;;1.83;1.70;;;13.30;99.90;;;;;;4899703;29;20475;-77
2021/12/30 10:14:25;;;;;;;2.20;1.70;;;13.30;99.90;;;;;;4900083;29;20522;-75
2021/12/30 10:16:52;;;;;;;2.47;1.93;;;13.40;99.90;;;;;;4900110;29;20443;-77
2021/12/30 10:19:27;;;;;;;2.07;1.87;;;13.40;99.90;;;;;;4899517;29;20491;-74
2021/12/30 10:21:53;;;;;;;2.27;2.07;;;13.40;99.90;;;;;;4899631;29;20503;-75
2021/12/30 10:24:20;;;;;;;2.83;2.53;;;13.50;99.90;;;;;;4899559;29;21124;-78
2021/12/30 10:26:51;;;;;;;3.07;2.77;;;13.50;99.90;;;;;;4899523;29;20495;-75
2021/12/30 10:29:18;;;;;;;6.87;2.50;;;13.60;99.90;;;;;;4899433;29;20495;-75
2021/12/30 10:31:45;;;;;;;4.03;3.30;;;13.50;99.90;;;;;;4899492;29;20506;-75
2021/12/30 10:34:12;;;;;;;4.93;3.60;;;13.60;99.90;;;;;;4899387;29;20494;-75
2021/12/30 10:36:42;;;;;;;4.57;2.73;;;13.60;99.90;;;;;;4899207;29;20459;-75
2021/12/30 10:39:17;;;;;;;2.93;2.63;;;13.60;99.90;;;;;;4899119;29;20491;-74
2021/12/30 10:41:44;;;;;;;2.70;2.50;;;13.60;99.90;;;;;;4899460;29;20502;-73
2021/12/30 10:44:13;;;;;;;3.50;3.17;;;13.60;99.90;;;;;;4899103;29;20486;-75
2021/12/30 10:46:43;;;;;;;3.90;2.70;;;13.60;99.90;;;;;;4899524;29;20527;-74
2021/12/30 10:49:11;;;;;;;2.80;2.47;;;13.60;99.90;;;;;;4899014;29;20546;-74
2021/12/30 10:51:41;;;;;;;3.00;2.70;;;13.70;99.90;;;;;;4899247;29;20475;-74
2021/12/30 10:54:18;;;;;;;2.47;2.23;;;13.70;99.90;;;;;;4899421;29;20495;-74
2021/12/30 10:56:47;;;;;;;2.70;2.50;;;13.70;99.90;;;;;;4899244;29;20491;-74
2021/12/30 10:59:22;;;;;;;2.10;1.90;;;13.80;99.90;;;;;;4898877;29;20494;-73
2021/12/30 11:01:53;;;;;;;5.00;2.07;;;13.80;99.90;;;;;;4898757;29;20617;-74
2021/12/30 11:04:21;;;;;;;4.43;2.03;;;13.90;99.90;;;;;;4898973;29;20463;-74
2021/12/30 11:06:49;;;;;;;2.60;2.03;;;13.90;99.90;;;;;;4898912;29;21056;-74
2021/12/30 11:09:19;;;;;;;2.83;2.30;;;14.00;99.90;;;;;;4898706;29;20498;-74
2021/12/30 11:11:50;;;;;;;3.63;2.07;;;14.10;99.90;;;;;;4898779;29;20503;-74
2021/12/30 11:14:20;;;;;;;2.00;1.80;;;14.10;99.90;;;;;;4899111;29;20542;-73
2021/12/30 11:17:12;;;;;;;2.57;1.90;;;14.20;99.90;;;;;;4897356;29;20491;-73
2021/12/30 11:19:41;;;;;;;3.20;1.83;;;14.20;99.90;;;;;;4896209;29;20523;-73
2021/12/30 11:22:12;;;;;;;2.30;2.00;;;14.20;99.90;;;;;;4898384;29;20528;-73
2021/12/30 11:24:40;;;;;;;2.90;2.20;;;14.30;99.90;;;;;;4898384;29;20535;-73
2021/12/30 11:27:10;;;;;;;2.70;1.63;;;14.30;99.90;;;;;;4898492;29;20444;-73
2021/12/30 11:29:43;;;;;;;3.20;1.50;;;14.40;99.90;;;;;;4898493;29;20459;-73
2021/12/30 11:32:11;;;;;;;1.70;1.60;;;14.40;99.90;;;;;;4898494;29;20914;-73
2021/12/30 11:34:38;;;;;;;4.83;1.63;;;14.40;99.90;;;;;;4898441;29;20491;-73
2021/12/30 11:37:06;;;;;;;1.40;1.30;;;14.50;99.90;;;;;;4898189;29;20547;-74
2021/12/30 11:39:34;;;;;;;1.87;1.30;;;14.50;99.90;;;;;;4897970;29;20491;-74
2021/12/30 11:42:06;;;;;;;1.20;1.10;;;14.50;99.90;;;;;;4898273;29;20534;-73
2021/12/30 11:44:44;;;;;;;1.60;1.20;;;14.50;99.90;;;;;;4898321;29;20454;-73
2021/12/30 11:47:39;;;;;;;2.43;1.90;;;14.50;99.90;;;;;;4898251;29;20534;-73
2021/12/30 11:50:28;;;;;;;1.83;1.30;;;14.60;99.90;;;;;;4897907;29;20554;-73
2021/12/30 11:52:57;;;;;;;1.80;1.40;;;14.50;99.90;;;;;;4897927;29;20543;-73
2021/12/30 11:55:58;;;;;;;2.37;1.40;;;14.50;99.90;;;;;;4897428;29;20534;-73
2021/12/30 11:58:42;;;;;;;2.03;1.57;;;14.50;99.90;;;;;;4896268;29;20507;-73
2021/12/30 12:01:33;;;;;;;1.23;1.10;;;14.60;99.90;;;;;;4897511;29;20480;-73
2021/12/30 12:04:02;;;;;;;1.63;1.30;;;14.60;99.90;;;;;;4897730;29;20498;-74
2021/12/30 12:06:33;;;;;;;2.90;1.30;;;14.70;99.90;;;;;;4897756;29;20549;-73
2021/12/30 12:09:02;;;;;;;1.50;1.33;;;14.70;99.90;;;;;;4897992;29;20495;-74
2021/12/30 12:11:31;;;;;;;3.07;1.40;;;14.70;99.90;;;;;;4897837;29;20487;-73
2021/12/30 12:14:13;;;;;;;1.40;1.30;;;14.70;99.90;;;;;;4897598;29;20463;-73
2021/12/30 12:16:49;;;;;;;1.30;1.20;;;14.70;99.90;;;;;;4897597;29;20479;-68
2021/12/30 12:19:18;;;;;;;1.63;1.50;;;14.80;99.90;;;;;;4897528;29;20459;-69
2021/12/30 12:21:47;;;;;;;1.60;1.50;;;14.80;99.90;;;;;;4897547;29;20503;-69
2021/12/30 12:24:36;;;;;;;1.83;1.57;;;14.80;99.90;;;;;;4897542;29;20459;-69
2021/12/30 12:27:07;;;;;;;3.53;1.90;;;14.80;99.90;;;;;;4894717;29;20498;-69
2021/12/30 12:29:38;;;;;;;2.60;1.77;;;14.90;99.90;;;;;;4897340;29;20491;-69
2021/12/30 12:32:11;;;;;;;2.73;2.07;;;14.90;99.90;;;;;;4897491;29;20534;-69
2021/12/30 12:34:41;;;;;;;2.60;1.83;;;14.90;99.90;;;;;;4897516;29;20456;-70
2021/12/30 12:37:40;;;;;;;3.70;2.00;;;15.00;99.90;;;;;;4897284;29;20555;-70
2021/12/30 12:40:10;;;;;;;2.77;1.30;;;15.00;99.90;;;;;;4890318;29;20470;-69
2021/12/30 12:42:57;;;;;;;1.60;1.30;;;15.00;99.90;;;;;;4897098;29;20499;-69
2021/12/30 12:45:26;;;;;;;4.23;1.80;;;15.00;99.90;;;;;;4897209;29;20471;-69
2021/12/30 12:48:25;;;;;;;1.40;1.30;;;15.00;99.90;;;;;;4896117;29;20547;-75
2021/12/30 12:50:55;;;;;;;1.60;1.30;;;15.00;99.90;;;;;;4895795;29;20468;-75
2021/12/30 12:53:38;;;;;;;1.30;1.20;;;15.00;99.90;;;;;;4896230;29;20664;-75
2021/12/30 12:56:07;;;;;;;2.60;1.30;;;15.00;99.90;;;;;;4896155;29;20458;-76
2021/12/30 12:58:37;;;;;;;3.13;0.87;;;14.90;99.90;;;;;;4895948;29;20459;-76
2021/12/30 13:01:06;;;;;;;1.23;1.00;;;14.90;99.90;;;;;;4895557;29;20495;-75
2021/12/30 13:03:36;;;;;;;1.10;1.00;;;14.90;99.90;;;;;;4896117;29;20937;-76
2021/12/30 13:06:06;;;;;;;2.70;1.10;;;14.90;99.90;;;;;;4895977;29;20531;-76
2021/12/30 13:08:34;;;;;;;0.70;0.70;;;14.90;99.90;;;;;;4895863;29;20462;-76
2021/12/30 13:11:02;;;;;;;1.00;0.90;;;14.90;99.90;;;;;;4895451;29;20471;-76
2021/12/30 13:13:31;;;;;;;1.20;1.10;;;14.90;99.90;;;;;;4905539;29;20843;-75
2021/12/30 13:15:58;;;;;;;1.10;1.00;;;14.90;99.90;;;;;;4908968;29;20534;-76
2021/12/30 13:18:26;;;;;;;0.83;0.60;;;15.00;99.90;;;;;;4914711;29;20967;-76
2021/12/30 13:20:54;;;;;;;1.17;0.80;;;14.90;99.90;;;;;;4914428;29;20566;-76
2021/12/30 13:23:29;;;;;;;1.37;1.07;;;14.90;99.90;;;;;;4914433;29;20505;-76
2021/12/30 13:26:04;;;;;;;1.23;1.13;;;14.90;99.90;;;;;;4914855;29;20522;-76
2021/12/30 13:28:31;;;;;;;1.00;0.90;;;14.90;99.90;;;;;;4914679;29;20498;-76
2021/12/30 13:31:10;;;;;;;0.90;0.80;;;14.90;99.90;;;;;;4914416;29;20565;-76
2021/12/30 13:33:37;;;;;;;0.77;0.77;;;14.90;99.90;;;;;;4914420;29;20497;-76
2021/12/30 13:36:16;;;;;;;0.93;0.87;;;14.80;99.90;;;;;;4914994;29;20545;-77
2021/12/30 13:38:43;;;;;;;0.80;0.80;;;14.80;99.90;;;;;;4914766;29;20841;-76
2021/12/30 13:41:15;;;;;;;1.27;1.03;;;14.80;99.90;;;;;;4914106;29;20574;-75
2021/12/30 13:43:43;;;;;;;1.00;0.90;;;14.80;99.90;;;;;;4915351;29;21014;-75
2021/12/30 13:46:11;;;;;;;0.80;0.80;;;14.80;99.90;;;;;;4915307;29;20454;-75
2021/12/30 13:48:41;;;;;;;1.80;1.07;;;14.80;99.90;;;;;;4915468;29;20545;-75
2021/12/30 13:51:11;;;;;;;1.30;1.20;;;14.80;99.90;;;;;;4915381;29;20561;-75
2021/12/30 13:53:42;;;;;;;2.00;1.30;;;14.80;99.90;;;;;;4917862;29;20482;-75
2021/12/30 13:56:10;;;;;;;7.83;1.80;;;14.80;99.90;;;;;;4915272;29;20458;-75
2021/12/30 13:58:40;;;;;;;1.00;0.90;;;14.80;99.90;;;;;;4915163;29;20545;-76
2021/12/30 14:01:10;;;;;;;1.13;0.87;;;14.80;99.90;;;;;;4915063;29;20497;-75
2021/12/30 14:03:39;;;;;;;0.97;0.87;;;14.80;99.90;;;;;;4915393;29;20863;-75
2021/12/30 14:06:07;;;;;;;2.53;1.17;;;14.80;99.90;;;;;;4915369;29;20455;-75
2021/12/30 14:08:35;;;;;;;1.20;1.00;;;14.70;99.90;;;;;;4915233;29;20541;-75
2021/12/30 14:11:06;;;;;;;1.77;1.30;;;14.70;99.90;;;;;;4914967;29;20570;-75
2021/12/30 14:13:39;;;;;;;1.20;1.10;;;14.70;99.90;;;;;;4915439;29;20453;-75
2021/12/30 14:16:08;;;;;;;1.20;1.10;;;14.60;99.90;;;;;;4915287;29;20458;-74
2021/12/30 14:18:37;;;;;;;3.43;1.20;;;14.60;99.90;;;;;;4916086;29;20482;-75
2021/12/30 14:21:06;;;;;;;1.73;1.40;;;14.70;99.90;;;;;;4918505;29;20565;-74
2021/12/30 14:23:37;;;;;;;1.20;1.00;;;14.60;99.90;;;;;;4918490;29;20581;-74
2021/12/30 14:26:27;;;;;;;1.47;1.37;;;14.60;99.90;;;;;;4918468;29;21125;-74
2021/12/30 14:28:58;;;;;;;2.03;1.13;;;14.60;99.90;;;;;;4916572;29;20506;-75
2021/12/30 14:31:30;;;;;;;1.13;0.90;;;14.60;99.90;;;;;;4918304;29;20549;-74
2021/12/30 14:34:13;;;;;;;2.43;1.20;;;14.60;99.90;;;;;;4918464;29;20529;-74
2021/12/30 14:36:58;;;;;;;1.30;1.17;;;14.60;99.90;;;;;;4918348;29;20458;-75
2021/12/30 14:39:29;;;;;;;1.40;1.30;;;14.60;99.90;;;;;;4917724;29;20865;-76
2021/12/30 14:42:10;;;;;;;1.70;1.60;;;14.60;99.90;;;;;;4903257;29;20578;-74
2021/12/30 14:44:38;;;;;;;3.37;1.83;;;14.50;99.90;;;;;;4899163;29;20464;-75
2021/12/30 14:47:07;;;;;;;1.97;1.60;;;14.50;99.90;;;;;;4899279;29;20476;-75
2021/12/30 14:49:35;;;;;;;1.17;1.07;;;14.40;99.90;;;;;;4899169;29;20444;-74
2021/12/30 14:52:21;;;;;;;1.30;1.20;;;14.40;99.90;;;;;;4899181;29;20489;-74
2021/12/30 14:54:49;;;;;;;1.53;1.10;;;14.40;99.90;;;;;;4898947;29;20462;-74
2021/12/30 14:57:20;;;;;;;1.40;1.10;;;14.40;99.90;;;;;;4898980;29;20550;-74
2021/12/30 14:59:48;;;;;;;2.40;1.23;;;14.30;99.90;;;;;;4899040;29;20814;-75
2021/12/30 15:02:15;;;;;;;3.60;1.60;;;14.30;99.90;;;;;;4898698;29;21016;-74
2021/12/30 15:04:42;;;;;;;1.27;1.17;;;14.30;99.90;;;;;;4899040;29;20555;-75
2021/12/30 15:07:10;;;;;;;1.20;1.10;;;14.30;99.90;;;;;;4898855;29;20476;-74
2021/12/30 15:09:39;;;;;;;1.67;1.40;;;14.30;99.90;;;;;;4898467;29;20467;-74
2021/12/30 15:12:07;;;;;;;1.30;1.20;;;14.20;99.90;;;;;;4898902;29;20471;-75
2021/12/30 15:14:36;;;;;;;1.83;1.43;;;14.20;99.90;;;;;;4898900;29;20554;-75
2021/12/30 15:17:03;;;;;;;1.23;1.00;;;14.20;99.90;;;;;;4898717;29;20535;-74
2021/12/30 15:19:30;;;;;;;1.20;1.10;;;14.20;99.90;;;;;;4898404;29;20462;-76
2021/12/30 15:21:57;;;;;;;1.73;1.20;;;14.20;99.90;;;;;;4898816;29;20566;-74
2021/12/30 15:24:24;;;;;;;1.57;1.47;;;14.20;99.90;;;;;;4898501;29;20543;-74
2021/12/30 15:26:51;;;;;;;2.17;1.47;;;14.20;99.90;;;;;;4898586;29;20459;-75
2021/12/30 15:29:18;;;;;;;1.37;1.27;;;14.20;99.90;;;;;;4898130;29;20495;-75
2021/12/30 15:31:46;;;;;;;1.30;1.00;;;14.10;99.90;;;;;;4897764;29;20511;-75
2021/12/30 15:34:13;;;;;;;1.10;1.00;;;14.10;99.90;;;;;;4898309;29;20475;-74
2021/12/30 15:36:40;;;;;;;2.53;1.33;;;14.00;99.90;;;;;;4897579;29;20888;-73
2021/12/30 15:39:07;;;;;;;1.30;1.10;;;14.00;99.90;;;;;;4897588;29;20506;-75
2021/12/30 15:41:34;;;;;;;3.27;1.53;;;13.90;99.90;;;;;;4898206;29;20566;-73
2021/12/30 15:44:01;;;;;;;1.43;1.33;;;13.90;99.90;;;;;;4898181;29;20534;-73
2021/12/30 15:46:28;;;;;;;1.43;1.33;;;13.90;99.90;;;;;;4900735;29;21118;-73
2021/12/30 15:48:57;;;;;;;1.30;1.13;;;13.80;99.90;;;;;;4897900;29;20543;-73
2021/12/30 15:51:23;;;;;;;1.93;1.10;;;13.70;99.90;;;;;;4898068;29;20487;-74
2021/12/30 15:53:50;;;;;;;1.30;1.00;;;13.60;99.90;;;;;;4898216;29;20483;-73
2021/12/30 15:56:18;;;;;;;2.70;1.17;;;13.60;99.90;;;;;;4897954;29;20542;-73
2021/12/30 15:58:45;;;;;;;4.67;1.37;;;13.60;99.90;;;;;;4897810;29;20455;-73
2021/12/30 16:01:11;;;;;;;1.47;1.17;;;13.60;99.90;;;;;;4897481;29;20571;-73
2021/12/30 16:03:38;;;;;;;1.90;1.10;;;13.60;99.90;;;;;;4900248;29;20585;-73
2021/12/30 16:06:07;;;;;;;1.27;1.20;;;13.60;99.90;;;;;;4905938;29;20917;-73
2021/12/30 16:08:34;;;;;;;1.60;1.30;;;13.50;99.90;;;;;;4908305;29;20479;-75
2021/12/30 16:11:01;;;;;;;5.23;1.47;;;13.50;99.90;;;;;;4900358;29;20571;-74
2021/12/30 16:13:28;;;;;;;1.60;1.40;;;13.50;99.90;;;;;;4897646;29;20918;-73
2021/12/30 16:15:55;;;;;;;1.37;1.13;;;13.50;99.90;;;;;;4897662;29;20626;-75
2021/12/30 16:18:22;;;;;;;1.23;1.13;;;13.50;99.90;;;;;;4897496;29;20491;-74
2021/12/30 16:20:50;;;;;;;1.60;1.50;;;13.40;99.90;;;;;;4897517;29;20483;-75
2021/12/30 16:23:19;;;;;;;4.20;1.20;;;13.50;99.90;;;;;;4897438;29;21016;-73
2021/12/30 16:25:46;;;;;;;1.57;1.30;;;13.50;99.90;;;;;;4897518;29;20961;-73
2021/12/30 16:28:13;;;;;;;4.10;1.40;;;13.40;99.90;;;;;;4897477;29;20493;-76
2021/12/30 16:30:40;;;;;;;2.53;1.73;;;13.50;99.90;;;;;;4897064;29;20562;-74
2021/12/30 16:33:08;;;;;;;1.63;1.23;;;13.50;99.90;;;;;;4897385;29;20547;-75
2021/12/30 16:35:35;;;;;;;2.00;1.60;;;13.40;99.90;;;;;;4897424;29;20460;-74
2021/12/30 16:38:03;;;;;;;1.70;1.57;;;13.40;99.90;;;;;;4897747;29;20547;-76
2021/12/30 16:40:32;;;;;;;2.43;1.87;;;13.50;99.90;;;;;;4897110;29;20519;-76
2021/12/30 16:42:59;;;;;;;1.93;1.60;;;13.50;99.90;;;;;;4897004;29;20503;-77
2021/12/30 16:45:27;;;;;;;3.63;2.20;;;13.50;99.90;;;;;;4897107;29;20542;-74
2021/12/30 16:47:54;;;;;;;4.23;1.83;;;13.50;99.90;;;;;;4897101;29;20955;-77
2021/12/30 16:50:21;;;;;;;2.07;1.87;;;13.50;99.90;;;;;;4897573;29;21032;-76
2021/12/30 16:52:48;;;;;;;2.63;1.73;;;13.50;99.90;;;;;;4897246;29;20554;-75
2021/12/30 16:55:15;;;;;;;2.03;1.87;;;13.50;99.90;;;;;;4897183;29;20463;-76
2021/12/30 16:57:44;;;;;;;1.50;1.40;;;13.50;99.90;;;;;;4896979;29;20551;-75
2021/12/30 17:00:15;;;;;;;3.80;1.80;;;13.50;99.90;;;;;;4896877;29;20483;-76
2021/12/30 17:02:43;;;;;;;2.53;1.80;;;13.40;99.90;;;;;;4897162;29;20480;-75
2021/12/30 17:05:12;;;;;;;1.63;1.50;;;13.40;99.90;;;;;;4897088;29;20494;-75
2021/12/30 17:07:39;;;;;;;1.67;1.57;;;13.40;99.90;;;;;;4896915;29;20579;-74
2021/12/30 17:10:08;;;;;;;2.83;2.03;;;13.40;99.90;;;;;;4896639;29;20546;-76
2021/12/30 17:12:35;;;;;;;2.13;1.70;;;13.40;99.90;;;;;;4896655;29;21011;-74
2021/12/30 17:15:04;;;;;;;2.47;1.90;;;13.40;99.90;;;;;;4933415;23;20560;-75
2021/12/30 17:17:31;;;;;;;1.83;1.50;;;13.40;99.90;;;;;;4934773;29;20556;-75
2021/12/30 17:19:58;;;;;;;1.30;1.20;;;13.40;99.90;;;;;;4934357;29;20549;-75
2021/12/30 17:22:25;;;;;;;1.60;1.50;;;13.40;99.90;;;;;;4928248;29;20530;-74
2021/12/30 17:24:52;;;;;;;4.93;1.60;;;13.40;99.90;;;;;;4924806;29;20525;-75
2021/12/30 17:27:19;;;;;;;2.30;1.80;;;13.40;99.90;;;;;;4930188;29;20841;-74
2021/12/30 17:29:46;;;;;;;2.93;1.80;;;13.30;99.90;;;;;;4934562;29;20540;-73
2021/12/30 17:32:15;;;;;;;1.90;1.63;;;13.30;99.90;;;;;;4934404;29;20458;-74
2021/12/30 17:34:42;;;;;;;1.80;1.60;;;13.30;99.90;;;;;;4934433;29;20482;-74
2021/12/30 17:37:09;;;;;;;3.80;2.07;;;13.30;99.90;;;;;;4934492;29;20541;-74
2021/12/30 17:39:37;;;;;;;2.50;1.93;;;13.30;99.90;;;;;;4934102;29;20457;-74
2021/12/30 17:42:04;;;;;;;2.00;1.90;;;13.30;99.90;;;;;;4934476;29;21056;-74
2021/12/30 17:44:32;;;;;;;3.57;2.70;;;13.30;99.90;;;;;;4934372;29;20501;-74
2021/12/30 17:47:01;;;;;;;2.83;2.33;;;13.30;99.90;;;;;;4934456;29;21178;-73
2021/12/30 17:49:30;;;;;;;4.10;3.37;;;13.30;99.90;;;;;;4934128;29;20496;-73
2021/12/30 17:51:57;;;;;;;3.23;2.93;;;13.30;99.90;;;;;;4934322;29;21041;-74
2021/12/30 17:54:24;;;;;;;2.47;2.27;;;13.30;99.90;;;;;;4936382;29;20556;-74
2021/12/30 17:56:51;;;;;;;1.90;1.80;;;13.30;99.90;;;;;;4938263;29;20891;-74
2021/12/30 17:59:18;;;;;;;2.30;1.80;;;13.30;99.90;;;;;;4937685;29;20485;-74